createdAt,value
2023-04-02T00:02:58.931Z,70.97
2023-04-02T00:06:02.782Z,71.42
2023-04-02T00:09:11.371Z,70.99
2023-04-02T00:12:18.388Z,71.30
2023-04-02T00:15:21.201Z,71.28
2023-04-02T00:18:25.650Z,71.55
2023-04-02T00:21:32.438Z,71.49
2023-04-02T00:24:35.370Z,71.80
2023-04-02T00:27:38.118Z,71.25
2023-04-02T00:30:51.695Z,71.80
2023-04-02T00:33:54.832Z,71.70
2023-04-02T00:36:58.421Z,71.89
2023-04-02T00:40:07.305Z,71.71
2023-04-02T00:43:16.817Z,71.05
2023-04-02T00:46:30.282Z,70.81
2023-04-02T00:49:43.190Z,70.56
2023-04-02T00:52:50.924Z,70.42
2023-04-02T00:55:54.455Z,70.41
2023-04-02T00:58:58.788Z,70.39
2023-04-02T01:02:29.269Z,70.45
2023-04-02T01:05:35.613Z,70.22
2023-04-02T01:08:42.004Z,69.73
2023-04-02T01:11:51.039Z,69.66
2023-04-02T01:15:10.019Z,70.02
2023-04-02T01:18:33.694Z,70.48
2023-04-02T01:22:03.709Z,70.36
2023-04-02T01:25:06.824Z,70.41
2023-04-02T01:28:36.482Z,70.08
2023-04-02T01:31:40.718Z,69.82
2023-04-02T01:34:45.911Z,69.65
2023-04-02T01:38:10.590Z,69.70
2023-04-02T01:41:32.704Z,70.03
2023-04-02T01:44:42.061Z,69.39
2023-04-02T01:47:45.293Z,69.34
2023-04-02T01:50:51.522Z,68.94
2023-04-02T01:53:55.093Z,69.00
2023-04-02T01:56:58.341Z,68.95
2023-04-02T02:00:08.263Z,68.74
2023-04-02T02:03:16.866Z,68.60
2023-04-02T02:06:20.228Z,68.90
2023-04-02T02:09:27.411Z,69.24
2023-04-02T02:12:31.273Z,69.69
2023-04-02T02:15:34.428Z,70.07
2023-04-02T02:18:37.561Z,70.55
2023-04-02T02:21:44.573Z,70.49
2023-04-02T02:24:48.296Z,70.69
2023-04-02T02:27:53.633Z,70.75
2023-04-02T02:31:05.170Z,70.29
2023-04-02T02:34:28.415Z,70.36
2023-04-02T02:37:39.554Z,70.01
2023-04-02T02:40:46.326Z,69.93
2023-04-02T02:44:08.446Z,70.08
2023-04-02T02:47:18.663Z,70.30
2023-04-02T02:50:25.904Z,70.43
2023-04-02T02:53:30.504Z,70.42
2023-04-02T02:56:37.373Z,70.40
2023-04-02T02:59:41.848Z,70.76
2023-04-02T03:02:45.893Z,70.47
2023-04-02T03:05:54.948Z,70.60
2023-04-02T03:08:58.483Z,70.67
2023-04-02T03:12:24.636Z,70.56
2023-04-02T03:15:55.795Z,71.04
2023-04-02T03:19:07.894Z,71.95
2023-04-02T03:22:16.566Z,71.87
2023-04-02T03:25:26.723Z,72.17
2023-04-02T03:28:35.762Z,71.93
2023-04-02T03:31:44.969Z,71.76
2023-04-02T03:34:55.151Z,71.71
2023-04-02T03:38:13.812Z,71.03
2023-04-02T03:41:21.765Z,70.42
2023-04-02T03:44:30.720Z,70.23
2023-04-02T03:47:46.062Z,70.28
2023-04-02T03:51:05.779Z,70.42
2023-04-02T03:54:15.721Z,70.01
2023-04-02T03:57:27.749Z,70.29
2023-04-02T04:01:05.933Z,70.10
2023-04-02T04:04:18.022Z,70.34
2023-04-02T04:07:34.526Z,70.37
2023-04-02T04:10:37.437Z,70.75
2023-04-02T04:13:50.349Z,70.14
2023-04-02T04:17:15.634Z,70.37
2023-04-02T04:20:26.170Z,70.31
2023-04-02T04:23:41.191Z,70.06
2023-04-02T04:26:57.671Z,70.30
2023-04-02T04:30:07.965Z,70.70
2023-04-02T04:33:23.291Z,70.31
2023-04-02T04:36:37.097Z,70.35
2023-04-02T04:39:54.538Z,70.30
2023-04-02T04:43:03.088Z,69.69
2023-04-02T04:46:12.411Z,70.09
2023-04-02T04:49:36.108Z,69.90
2023-04-02T04:52:42.648Z,69.50
2023-04-02T04:55:48.483Z,69.60
2023-04-02T04:58:54.336Z,69.54
2023-04-02T05:02:03.687Z,69.74
2023-04-02T05:05:19.082Z,69.38
2023-04-02T05:08:30.701Z,69.05
2023-04-02T05:11:47.487Z,69.37
2023-04-02T05:14:50.692Z,68.55
2023-04-02T05:17:53.435Z,68.23
2023-04-02T05:21:08.160Z,68.78
2023-04-02T05:24:31.605Z,68.49
2023-04-02T05:27:47.779Z,68.01
2023-04-02T05:30:54.408Z,68.88
2023-04-02T05:33:59.933Z,69.80
2023-04-02T05:37:06.971Z,68.80
2023-04-02T05:40:31.174Z,68.56
2023-04-02T05:43:39.325Z,68.13
2023-04-02T05:46:54.536Z,67.54
2023-04-02T05:50:12.478Z,67.61
2023-04-02T05:53:23.706Z,68.41
2023-04-02T05:56:41.763Z,68.41
2023-04-02T05:59:51.121Z,69.20
2023-04-02T06:03:07.672Z,69.32
2023-04-02T06:06:29.621Z,69.70
2023-04-02T06:09:42.379Z,69.60
2023-04-02T06:12:58.296Z,68.96
2023-04-02T06:16:03.199Z,68.64
2023-04-02T06:19:16.635Z,67.79
2023-04-02T06:22:32.002Z,67.36
2023-04-02T06:25:40.058Z,67.06
2023-04-02T06:28:58.253Z,67.12
2023-04-02T06:32:04.876Z,67.12
2023-04-02T06:35:18.020Z,66.24
2023-04-02T06:38:31.168Z,66.37
2023-04-02T06:41:34.277Z,65.03
2023-04-02T06:44:56.374Z,64.32
2023-04-02T06:48:19.475Z,63.53
2023-04-02T06:51:30.495Z,61.81
2023-04-02T06:54:33.486Z,61.68
2023-04-02T06:57:43.021Z,60.98
2023-04-02T07:00:48.449Z,60.02
2023-04-02T07:03:59.615Z,60.73
2023-04-02T07:07:13.863Z,59.67
2023-04-02T07:10:20.577Z,59.29
2023-04-02T07:13:25.202Z,58.77
2023-04-02T07:16:31.171Z,58.33
2023-04-02T07:19:34.112Z,57.42
2023-04-02T07:22:37.242Z,58.48
2023-04-02T07:25:40.256Z,58.29
2023-04-02T07:28:43.671Z,58.92
2023-04-02T07:31:46.813Z,57.52
2023-04-02T07:34:49.721Z,58.05
2023-04-02T07:37:53.025Z,57.48
2023-04-02T07:40:56.021Z,57.03
2023-04-02T07:43:59.205Z,57.12
2023-04-02T07:47:02.106Z,57.78
2023-04-02T07:50:05.716Z,57.10
2023-04-02T07:53:16.946Z,58.06
2023-04-02T07:56:20.141Z,58.58
2023-04-02T07:59:23.020Z,58.34
2023-04-02T08:02:26.283Z,58.30
2023-04-02T08:05:29.381Z,58.43
2023-04-02T08:08:32.090Z,58.38
2023-04-02T08:11:35.097Z,58.03
2023-04-02T08:14:37.961Z,56.92
2023-04-02T08:17:40.779Z,56.77
2023-04-02T08:20:43.776Z,56.68
2023-04-02T08:23:46.503Z,56.06
2023-04-02T08:26:51.641Z,56.20
2023-04-02T08:29:54.449Z,56.88
2023-04-02T08:32:57.237Z,56.62
2023-04-02T08:36:00.059Z,55.40
2023-04-02T08:39:04.689Z,55.47
2023-04-02T08:42:27.081Z,54.49
2023-04-02T08:45:32.695Z,54.89
2023-04-02T08:48:40.755Z,53.64
2023-04-02T08:51:47.188Z,54.10
2023-04-02T08:54:50.211Z,53.95
2023-04-02T08:58:14.149Z,54.16
2023-04-02T09:01:37.908Z,55.07
2023-04-02T09:04:41.794Z,55.88
2023-04-02T09:07:47.446Z,56.00
2023-04-02T09:11:25.216Z,55.13
2023-04-02T09:15:06.293Z,54.89
2023-04-02T09:18:16.601Z,54.48
2023-04-02T09:21:22.630Z,55.15
2023-04-02T09:24:25.625Z,54.33
2023-04-02T09:27:34.554Z,53.24
2023-04-02T09:30:54.890Z,53.68
2023-04-02T09:33:57.817Z,53.26
2023-04-02T09:37:09.956Z,54.89
2023-04-02T09:40:20.366Z,54.19
2023-04-02T09:43:25.736Z,53.79
2023-04-02T09:46:28.550Z,52.80
2023-04-02T09:49:34.472Z,53.01
2023-04-02T09:52:37.606Z,53.90
2023-04-02T09:55:40.723Z,52.98
2023-04-02T09:58:45.352Z,51.76
2023-04-02T10:02:02.020Z,52.20
2023-04-02T10:05:07.030Z,51.13
2023-04-02T10:08:28.266Z,52.30
2023-04-02T10:11:46.115Z,52.98
2023-04-02T10:14:51.254Z,53.08
2023-04-02T10:18:07.116Z,52.69
2023-04-02T10:21:15.774Z,54.03
2023-04-02T10:24:19.095Z,53.27
2023-04-02T10:27:33.602Z,52.53
2023-04-02T10:30:57.912Z,51.56
2023-04-02T10:34:04.793Z,50.80
2023-04-02T10:37:33.407Z,52.12
2023-04-02T10:40:42.904Z,51.75
2023-04-02T10:44:06.169Z,51.80
2023-04-02T10:47:28.055Z,52.48
2023-04-02T10:50:48.249Z,50.79
2023-04-02T10:54:30.873Z,49.32
2023-04-02T10:57:42.085Z,50.50
2023-04-02T11:00:46.891Z,51.14
2023-04-02T11:04:17.191Z,51.31
2023-04-02T11:07:24.974Z,52.23
2023-04-02T11:10:31.642Z,52.25
2023-04-02T11:13:52.946Z,52.24
2023-04-02T11:17:03.013Z,52.63
2023-04-02T11:20:43.790Z,51.53
2023-04-02T11:24:01.274Z,51.36
2023-04-02T11:27:05.207Z,49.54
2023-04-02T11:30:28.647Z,49.08
2023-04-02T11:33:38.189Z,50.05
2023-04-02T11:36:51.055Z,48.68
2023-04-02T11:39:56.932Z,49.77
2023-04-02T11:43:45.921Z,50.11
2023-04-02T11:46:48.792Z,49.93
2023-04-02T11:50:04.498Z,49.44
2023-04-02T11:53:14.782Z,49.39
2023-04-02T11:56:18.235Z,49.65
2023-04-02T11:59:42.681Z,50.21
2023-04-02T12:03:28.571Z,48.76
2023-04-02T12:06:48.701Z,49.79
2023-04-02T12:09:55.627Z,51.51
2023-04-02T12:12:59.012Z,51.62
2023-04-02T12:16:02.857Z,53.22
2023-04-02T12:19:09.519Z,52.88
2023-04-02T12:22:28.581Z,52.59
2023-04-02T12:25:34.621Z,50.20
2023-04-02T12:28:38.370Z,49.69
2023-04-02T12:31:46.575Z,49.43
2023-04-02T12:34:51.471Z,49.14
2023-04-02T12:37:54.521Z,49.34
2023-04-02T12:40:59.982Z,49.96
2023-04-02T12:44:05.191Z,50.99
2023-04-02T12:47:07.979Z,52.28
2023-04-02T12:50:15.541Z,52.72
2023-04-02T12:53:29.595Z,53.02
2023-04-02T12:56:32.358Z,51.95
2023-04-02T12:59:36.740Z,51.90
2023-04-02T13:02:48.866Z,51.28
2023-04-02T13:05:56.300Z,50.27
2023-04-02T13:09:01.342Z,48.64
2023-04-02T13:12:04.751Z,50.35
2023-04-02T13:15:18.131Z,51.18
2023-04-02T13:18:22.951Z,50.00
2023-04-02T13:21:28.424Z,49.49
2023-04-02T13:24:33.343Z,50.34
2023-04-02T13:27:36.111Z,50.72
2023-04-02T13:30:39.017Z,50.88
2023-04-02T13:33:41.971Z,51.15
2023-04-02T13:36:45.739Z,50.53
2023-04-02T13:39:48.736Z,52.70
2023-04-02T13:42:51.594Z,52.30
2023-04-02T13:45:57.600Z,52.53
2023-04-02T13:49:01.078Z,52.71
2023-04-02T13:52:05.368Z,53.02
2023-04-02T13:55:10.360Z,52.77
2023-04-02T13:58:13.408Z,51.79
2023-04-02T14:01:17.409Z,49.54
2023-04-02T14:04:26.215Z,49.82
2023-04-02T14:07:39.729Z,49.16
2023-04-02T14:11:04.216Z,49.33
2023-04-02T14:14:21.147Z,50.04
2023-04-02T14:17:47.586Z,49.17
2023-04-02T14:21:05.893Z,49.15
2023-04-02T14:24:31.438Z,51.17
2023-04-02T14:27:58.148Z,50.36
2023-04-02T14:31:22.100Z,52.40
2023-04-02T14:34:47.196Z,51.23
2023-04-02T14:37:57.882Z,51.41
2023-04-02T14:41:08.842Z,51.04
2023-04-02T14:44:12.593Z,51.17
2023-04-02T14:47:19.045Z,51.51
2023-04-02T14:50:38.184Z,51.42
2023-04-02T14:53:53.048Z,51.39
2023-04-02T14:57:04.372Z,53.13
2023-04-02T15:00:22.784Z,53.75
2023-04-02T15:03:32.798Z,53.98
2023-04-02T15:06:44.646Z,53.78
2023-04-02T15:10:14.367Z,53.90
2023-04-02T15:13:22.961Z,54.93
2023-04-02T15:16:26.909Z,53.75
2023-04-02T15:19:30.089Z,54.28
2023-04-02T15:22:43.193Z,54.11
2023-04-02T15:25:45.985Z,54.58
2023-04-02T15:28:59.264Z,54.88
2023-04-02T15:32:25.873Z,55.13
2023-04-02T15:35:54.795Z,53.79
2023-04-02T15:39:15.380Z,54.32
2023-04-02T15:42:29.253Z,54.87
2023-04-02T15:45:41.169Z,54.90
2023-04-02T15:49:04.369Z,55.30
2023-04-02T15:52:33.477Z,54.44
2023-04-02T15:55:54.895Z,55.49
2023-04-02T15:59:16.093Z,54.71
2023-04-02T16:02:36.814Z,55.18
2023-04-02T16:05:45.733Z,55.38
2023-04-02T16:09:04.736Z,56.20
2023-04-02T16:12:19.651Z,55.90
2023-04-02T16:15:28.745Z,55.98
2023-04-02T16:18:50.728Z,56.59
2023-04-02T16:22:03.168Z,57.23
2023-04-02T16:25:22.413Z,58.17
2023-04-02T16:28:35.144Z,58.73
2023-04-02T16:31:56.312Z,59.06
2023-04-02T16:35:41.608Z,58.90
2023-04-02T16:38:58.979Z,59.86
2023-04-02T16:42:09.037Z,59.34
2023-04-02T16:45:48.447Z,59.23
2023-04-02T16:49:01.692Z,60.26
2023-04-02T16:52:54.514Z,60.13
2023-04-02T16:56:03.171Z,60.65
2023-04-02T16:59:26.557Z,60.76
2023-04-02T17:02:52.728Z,60.87
2023-04-02T17:06:05.837Z,61.07
2023-04-02T17:09:18.129Z,61.67
2023-04-02T17:12:47.039Z,62.39
2023-04-02T17:16:01.968Z,62.70
2023-04-02T17:19:13.813Z,63.17
2023-04-02T17:22:20.458Z,63.64
2023-04-02T17:25:27.120Z,63.56
2023-04-02T17:28:36.962Z,63.71
2023-04-02T17:31:42.233Z,63.72
2023-04-02T17:34:45.401Z,63.85
2023-04-02T17:38:07.960Z,63.91
2023-04-02T17:41:36.432Z,64.27
2023-04-02T17:44:48.280Z,64.47
2023-04-02T17:47:56.776Z,64.61
2023-04-02T17:51:11.641Z,64.83
2023-04-02T17:54:37.529Z,64.85
2023-04-02T17:58:01.713Z,65.03
2023-04-02T18:01:18.153Z,64.91
2023-04-02T18:04:42.684Z,65.00
2023-04-02T18:08:02.688Z,64.86
2023-04-02T18:11:11.695Z,65.00
2023-04-02T18:14:25.646Z,64.84
2023-04-02T18:18:04.747Z,65.51
2023-04-02T18:21:29.211Z,65.87
2023-04-02T18:24:59.411Z,65.89
2023-04-02T18:28:04.994Z,65.99
2023-04-02T18:31:19.676Z,66.21
2023-04-02T18:34:29.482Z,66.38
2023-04-02T18:37:55.136Z,67.04
2023-04-02T18:41:26.697Z,67.34
2023-04-02T18:45:04.132Z,67.17
2023-04-02T18:48:29.083Z,67.19
2023-04-02T18:51:36.898Z,67.68
2023-04-02T18:54:45.418Z,67.88
2023-04-02T18:58:19.930Z,67.90
2023-04-02T19:01:30.777Z,68.30
2023-04-02T19:04:38.316Z,68.36
2023-04-02T19:07:44.316Z,68.70
2023-04-02T19:10:53.414Z,68.23
2023-04-02T19:14:01.439Z,68.92
2023-04-02T19:17:10.917Z,67.96
2023-04-02T19:20:28.992Z,68.87
2023-04-02T19:24:00.896Z,68.09
2023-04-02T19:27:27.383Z,68.31
2023-04-02T19:30:51.721Z,68.84
2023-04-02T19:34:15.976Z,68.59
2023-04-02T19:37:24.827Z,68.09
2023-04-02T19:40:54.888Z,68.19
2023-04-02T19:43:58.134Z,67.68
2023-04-02T19:47:01.196Z,68.19
2023-04-02T19:50:05.019Z,68.88
2023-04-02T19:53:08.241Z,67.65
2023-04-02T19:56:11.426Z,68.65
2023-04-02T19:59:17.921Z,67.94
2023-04-02T20:02:21.788Z,67.25
2023-04-02T20:05:25.920Z,66.09
2023-04-02T20:08:30.569Z,64.48
2023-04-02T20:11:35.325Z,61.90
2023-04-02T20:14:39.631Z,61.65
2023-04-02T20:17:42.637Z,62.20
2023-04-02T20:20:49.132Z,62.28
2023-04-02T20:23:55.486Z,63.00
2023-04-02T20:26:58.422Z,63.13
2023-04-02T20:30:01.532Z,63.31
2023-04-02T20:33:04.576Z,63.34
2023-04-02T20:36:10.881Z,63.15
2023-04-02T20:39:19.338Z,62.13
2023-04-02T20:42:22.819Z,62.37
2023-04-02T20:45:27.951Z,62.46
2023-04-02T20:48:32.386Z,62.86
2023-04-02T20:51:35.158Z,63.64
2023-04-02T20:54:53.363Z,64.18
2023-04-02T20:57:56.630Z,64.13
2023-04-02T21:01:19.630Z,64.77
2023-04-02T21:04:22.493Z,64.06
2023-04-02T21:07:25.481Z,63.74
2023-04-02T21:10:28.205Z,64.02
2023-04-02T21:13:32.332Z,64.12
2023-04-02T21:16:35.423Z,63.67
2023-04-02T21:19:40.728Z,63.74
2023-04-02T21:22:43.673Z,64.17
2023-04-02T21:25:55.496Z,64.42
2023-04-02T21:28:58.651Z,64.90
2023-04-02T21:32:03.597Z,64.62
2023-04-02T21:35:13.951Z,64.50
2023-04-02T21:38:16.660Z,64.42
2023-04-02T21:41:28.979Z,64.15
2023-04-02T21:44:31.825Z,64.08
2023-04-02T21:47:34.602Z,63.68
2023-04-02T21:50:37.683Z,63.90
2023-04-02T21:53:41.550Z,64.05
2023-04-02T21:56:46.490Z,64.96
2023-04-02T21:59:49.203Z,65.35
2023-04-02T22:02:52.168Z,65.05
2023-04-02T22:06:20.052Z,65.17
2023-04-02T22:09:24.931Z,65.47
2023-04-02T22:12:27.891Z,65.15
2023-04-02T22:15:33.885Z,65.30
2023-04-02T22:18:38.309Z,65.77
2023-04-02T22:21:42.442Z,65.31
2023-04-02T22:24:45.581Z,65.53
2023-04-02T22:27:52.064Z,65.08
2023-04-02T22:30:56.396Z,65.44
2023-04-02T22:33:59.711Z,65.34
2023-04-02T22:37:02.650Z,65.22
2023-04-02T22:40:05.867Z,65.72
2023-04-02T22:43:08.636Z,65.96
2023-04-02T22:46:13.776Z,66.23
2023-04-02T22:49:19.579Z,66.29
2023-04-02T22:52:22.453Z,66.37
2023-04-02T22:55:25.209Z,66.42
2023-04-02T22:58:28.218Z,66.12
2023-04-02T23:01:33.524Z,66.31
2023-04-02T23:04:36.898Z,66.33
2023-04-02T23:07:39.726Z,66.63
2023-04-02T23:10:42.453Z,66.91
2023-04-02T23:13:47.208Z,66.65
2023-04-02T23:16:50.124Z,66.83
2023-04-02T23:19:52.872Z,66.32
2023-04-02T23:22:55.857Z,66.54
2023-04-02T23:26:17.510Z,66.63
2023-04-02T23:29:20.642Z,66.40
2023-04-02T23:32:24.348Z,66.11
2023-04-02T23:35:28.231Z,66.16
2023-04-02T23:38:31.342Z,66.24
2023-04-02T23:41:34.175Z,66.28
2023-04-02T23:44:37.012Z,66.17
2023-04-02T23:47:39.813Z,65.69
2023-04-02T23:50:44.332Z,65.83
2023-04-02T23:53:47.821Z,65.58
2023-04-02T23:56:50.745Z,65.67
2023-04-02T23:59:54.500Z,65.51
